Impacts METAR Board INFO
IDs:

KSFO - San Francisco Intl, CA, US

Updated at: 1517 UTC 16 Jan 2018
Potential Impact None Slight Moderate High
Time16/03Z 16/04Z 16/05Z 16/06Z 16/07Z 16/08Z 16/09Z 16/10Z 16/11Z 16/12Z 16/13Z 16/14Z 16/15Z
VIS10 8 7 8 9 7 9 9 9 9 8 8 6
CIG180 46 33 20 17 23 16 13 11 17 11 15 17
CoverBKNBKNOVCOVCOVCOVCOVCOVCOVCOVCOVCOVCOVC
FltCatVFRVFRVFRMVFRMVFRMVFRMVFRMVFRMVFRMVFRMVFRMVFRMVFR
WX-----------------RA------BR
WDir70120806014080012021080000
WSpd4 3 4 4 3 4 0 6 3 3 0 0 0
WGst-- -- -- -- -- -- -- -- -- -- -- -- --
Raw hourly METARs
KSFO 160256Z 07004KT 10SM SCT060 BKN180 14/09 A3009 RMK AO2 SLP190 T01390089 50003 $
KSFO 160356Z 12003KT 8SM BKN046 BKN180 13/10 A3010 RMK AO2 SLP194 T01280100 $
KSFO 160456Z 08004KT 7SM SCT027 BKN033 OVC042 13/11 A3012 RMK AO2 SLP201 T01280111 $
KSFO 160556Z 06004KT 8SM FEW017 BKN020 OVC042 13/11 A3012 RMK AO2 SLP199 T01280111 10144 20128 50009 $
KSFO 160656Z 14003KT 9SM FEW013 BKN017 OVC036 13/11 A3015 RMK AO2 SLP211 T01330111 $
KSFO 160756Z 08004KT 7SM FEW013 BKN023 OVC160 13/11 A3017 RMK AO2 SLP215 T01330111 401440089 $
KSFO 160856Z 00000KT 9SM FEW013 BKN016 OVC022 14/12 A3016 RMK AO2 SLP212 T01390122 50013 $
KSFO 160956Z 12006KT 9SM FEW008 BKN013 OVC016 13/11 A3015 RMK AO2 SLP208 T01330106 $
KSFO 161056Z 21003KT 9SM -RA FEW008 BKN011 OVC015 14/11 A3017 RMK AO2 RAB54 SLP216 P0000 T01390111 $
KSFO 161156Z 08003KT 9SM FEW008 SCT011 OVC017 13/11 A3016 RMK AO2 RAE03 SLP212 P0000 60000 T01330111 10144 20128 50000 $
KSFO 161256Z 00000KT 8SM FEW008 BKN011 OVC017 13/11 A3018 RMK AO2 SLP220 T01330111 $
KSFO 161356Z 00000KT 8SM FEW008 BKN015 OVC034 13/11 A3017 RMK AO2 SLP216 T01280111 $
KSFO 161456Z 00000KT 6SM BR FEW008 OVC017 13/11 A3019 RMK AO2 SLP223 T01280111 51011 $